EDT,Max TemperatureF,Mean TemperatureF,Min TemperatureF,Max Dew PointF,MeanDew PointF,Min DewpointF,Max Humidity, Mean Humidity, Min Humidity, Max Sea Level PressureIn, Mean Sea Level PressureIn, Min Sea Level PressureIn, Max VisibilityMiles, Mean VisibilityMiles, Min VisibilityMiles, Max Wind SpeedMPH, Mean Wind SpeedMPH, Max Gust SpeedMPH,PrecipitationIn, CloudCover, Events, WindDirDegrees
2013-5-1,79,66,52,56,51,47,83,61,39,30.25,30.20,30.12,10,10,10,13,5,17,0.00,0,,98
2013-5-2,76,64,52,53,48,42,78,61,43,30.30,30.22,30.14,10,10,10,14,6,23,0.00,1,,129
2013-5-3,77,65,53,49,40,34,77,49,20,30.18,30.12,30.05,10,10,10,20,9,26,0.00,0,,134
2013-5-4,73,63,52,42,39,32,64,47,29,30.13,30.08,30.01,10,10,10,18,9,26,0.00,0,,102
2013-5-5,74,61,48,42,34,24,71,46,20,30.07,30.01,29.94,10,10,10,17,8,23,0.00,0,,91
2013-5-6,70,63,55,57,47,35,86,63,39,30.01,29.98,29.96,10,10,10,15,7,21,0.02,5,Rain,96
2013-5-7,70,62,54,58,54,51,93,78,63,29.98,29.96,29.94,10,10,6,18,6,24,0.05,4,Rain,63
2013-5-8,73,64,55,57,52,48,93,69,44,29.98,29.94,29.89,10,10,9,13,5,16,0.03,6,Rain,29
2013-5-9,78,63,48,56,52,48,100,70,40,30.01,29.97,29.94,10,4,0,14,3,20,T,2,Fog-Rain,245
2013-5-10,74,67,59,62,59,55,93,79,64,29.97,29.89,29.81,10,8,1,24,7,33,0.65,7,Rain-Thunderstorm,217
2013-5-11,61,54,47,59,51,38,97,82,66,29.92,29.84,29.80,10,9,4,22,9,29,T,8,Rain,277
2013-5-12,54,45,35,36,31,28,92,67,41,30.12,30.02,29.94,10,10,10,21,9,29,0.00,5,,283
2013-5-13,55,45,35,34,31,27,89,64,38,30.20,30.15,30.10,10,10,10,17,5,24,0.01,5,,301
2013-5-14,71,52,33,49,39,30,96,67,37,30.18,30.03,29.83,10,10,10,17,6,23,0.00,2,,177
2013-5-15,87,73,58,58,56,49,87,62,37,29.83,29.80,29.75,10,10,10,25,11,35,0.00,1,Thunderstorm,232
2013-5-16,76,68,59,65,59,51,90,67,43,29.99,29.89,29.80,10,9,4,14,4,22,0.24,4,Rain-Thunderstorm,237
2013-5-17,81,71,60,61,60,55,100,73,45,30.11,30.05,29.99,10,6,0,10,2,14,0.00,5,Fog,193
2013-5-18,78,68,57,63,59,52,93,75,56,30.10,30.05,30.01,10,10,5,10,3,15,T,4,Rain,107
2013-5-19,80,70,60,65,62,59,97,78,58,30.05,30.00,29.94,10,10,7,12,4,20,0.00,5,,139
2013-5-20,81,72,63,70,66,61,100,81,62,30.05,29.99,29.92,10,7,1,14,6,24,0.00,5,,177
2013-5-21,86,76,65,67,65,63,100,76,51,29.94,29.88,29.82,10,9,4,16,7,21,0.00,1,Thunderstorm,190
2013-5-22,84,74,63,64,61,57,87,66,44,29.87,29.82,29.76,10,10,10,18,8,25,0.02,2,Rain,202
2013-5-23,74,60,46,63,57,41,93,73,53,30.01,29.85,29.79,10,9,1,22,10,30,0.12,6,Rain-Thunderstorm,238
2013-5-24,56,47,37,41,36,33,79,63,46,30.34,30.20,30.02,10,10,10,17,9,26,0.00,6,Rain,343
2013-5-25,65,48,31,39,34,30,96,64,31,30.40,30.32,30.26,10,10,5,16,4,22,0.00,0,,335
2013-5-26,68,51,34,41,35,30,92,60,28,30.34,30.29,30.23,10,10,10,10,1,16,0.00,0,,8
2013-5-27,68,55,42,49,44,40,89,66,42,30.27,30.19,30.04,10,10,4,15,4,21,0.05,3,Rain,133
2013-5-28,83,71,59,63,59,49,78,64,49,30.06,30.01,29.96,10,10,10,18,7,24,0.02,4,Rain,195
2013-5-29,87,76,65,61,60,57,81,59,37,30.08,30.05,30.01,10,10,10,17,7,31,0.00,1,,211
2013-5-30,88,74,60,64,61,59,97,68,39,30.19,30.11,30.06,10,10,7,16,5,22,0.00,0,,191
2013-5-31,89,75,60,65,62,58,97,69,40,30.11,30.05,29.96,10,9,2,26,6,40,0.20,2,Rain,198